Ivoryton, Connecticut
Current Conditions -  °F | °C
As of 6:55 PM on Monday 22 Dec 2014 (Local Time) from KSNC Reporting Station
Overcast Overcast  
Wind Chill: 36°   Ceiling: 1300
Heat Index: 41°   Visibility: 10mi
Dew Point: 37°   Wind: 8mph
Humidity: 87%   Direction: 80°E
Pressure: 30.26"   Gusts: NA
Location:  41.35°N, 72.44°W
Report Text: KSNC 222355Z AUTO 08007KT 10SM BKN013 OVC017 05/03 A3026 RMK AO2
Loading
Personal Weather Stations






























Interactive Weather Map New forecast layout! Learn more

10-Day Weather Forecast

Advertisements
Track Severe Weather on mobile